sensor_id;sensor_type;location;lat;lon;timestamp;P1;durP1;ratioP1;P2;durP2;ratioP2
13079;SDS011;6606;49.154;9.280;2023-01-01T00:00:08;20.33;;;12.23;;
13079;SDS011;6606;49.154;9.280;2023-01-01T00:02:51;17.13;;;13.20;;
13079;SDS011;6606;49.154;9.280;2023-01-01T00:05:33;18.93;;;14.57;;
13079;SDS011;6606;49.154;9.280;2023-01-01T00:08:15;20.23;;;15.97;;
13079;SDS011;6606;49.154;9.280;2023-01-01T00:11:00;23.73;;;17.57;;
13079;SDS011;6606;49.154;9.280;2023-01-01T00:13:42;24.40;;;18.77;;
13079;SDS011;6606;49.154;9.280;2023-01-01T00:16:23;36.77;;;23.20;;
13079;SDS011;6606;49.154;9.280;2023-01-01T00:19:05;33.90;;;25.93;;
13079;SDS011;6606;49.154;9.280;2023-01-01T00:21:47;38.10;;;26.87;;
13079;SDS011;6606;49.154;9.280;2023-01-01T00:24:29;39.03;;;28.47;;
13079;SDS011;6606;49.154;9.280;2023-01-01T00:27:12;37.17;;;28.93;;
13079;SDS011;6606;49.154;9.280;2023-01-01T00:29:53;39.53;;;29.20;;
13079;SDS011;6606;49.154;9.280;2023-01-01T00:32:35;38.83;;;29.43;;
13079;SDS011;6606;49.154;9.280;2023-01-01T00:35:17;37.90;;;28.87;;
13079;SDS011;6606;49.154;9.280;2023-01-01T00:37:59;42.33;;;31.20;;
13079;SDS011;6606;49.154;9.280;2023-01-01T00:40:40;43.20;;;31.57;;
13079;SDS011;6606;49.154;9.280;2023-01-01T00:43:23;39.17;;;31.40;;
13079;SDS011;6606;49.154;9.280;2023-01-01T00:46:05;43.07;;;32.23;;
13079;SDS011;6606;49.154;9.280;2023-01-01T00:48:47;44.70;;;33.10;;
13079;SDS011;6606;49.154;9.280;2023-01-01T00:51:29;44.53;;;33.63;;
13079;SDS011;6606;49.154;9.280;2023-01-01T00:54:11;43.73;;;34.27;;
13079;SDS011;6606;49.154;9.280;2023-01-01T00:56:52;50.27;;;35.90;;
13079;SDS011;6606;49.154;9.280;2023-01-01T00:59:36;52.37;;;35.80;;
13079;SDS011;6606;49.154;9.280;2023-01-01T01:02:17;52.90;;;35.73;;
13079;SDS011;6606;49.154;9.280;2023-01-01T01:04:59;46.07;;;35.33;;
13079;SDS011;6606;49.154;9.280;2023-01-01T01:07:42;47.17;;;35.90;;
13079;SDS011;6606;49.154;9.280;2023-01-01T01:10:24;48.90;;;37.17;;
13079;SDS011;6606;49.154;9.280;2023-01-01T01:13:06;47.07;;;35.40;;
13079;SDS011;6606;49.154;9.280;2023-01-01T01:15:49;44.00;;;34.80;;
13079;SDS011;6606;49.154;9.280;2023-01-01T01:18:31;44.87;;;34.20;;
13079;SDS011;6606;49.154;9.280;2023-01-01T01:21:15;45.40;;;33.97;;
13079;SDS011;6606;49.154;9.280;2023-01-01T01:23:59;44.03;;;32.83;;
13079;SDS011;6606;49.154;9.280;2023-01-01T01:26:41;43.07;;;32.83;;
13079;SDS011;6606;49.154;9.280;2023-01-01T01:29:23;40.10;;;31.60;;
13079;SDS011;6606;49.154;9.280;2023-01-01T01:32:07;40.83;;;32.33;;
13079;SDS011;6606;49.154;9.280;2023-01-01T01:34:48;41.03;;;32.20;;
13079;SDS011;6606;49.154;9.280;2023-01-01T01:37:30;40.00;;;31.50;;
13079;SDS011;6606;49.154;9.280;2023-01-01T01:40:12;41.00;;;28.70;;
13079;SDS011;6606;49.154;9.280;2023-01-01T01:42:56;37.73;;;30.37;;
13079;SDS011;6606;49.154;9.280;2023-01-01T01:45:38;38.57;;;28.40;;
13079;SDS011;6606;49.154;9.280;2023-01-01T01:48:21;34.93;;;26.17;;
13079;SDS011;6606;49.154;9.280;2023-01-01T01:51:04;34.50;;;27.53;;
13079;SDS011;6606;49.154;9.280;2023-01-01T01:53:47;30.77;;;25.47;;
13079;SDS011;6606;49.154;9.280;2023-01-01T01:56:34;29.77;;;23.50;;
13079;SDS011;6606;49.154;9.280;2023-01-01T01:59:21;31.13;;;24.27;;
13079;SDS011;6606;49.154;9.280;2023-01-01T02:02:08;30.83;;;25.07;;
13079;SDS011;6606;49.154;9.280;2023-01-01T02:04:58;30.30;;;23.17;;
13079;SDS011;6606;49.154;9.280;2023-01-01T02:07:40;29.40;;;20.93;;
13079;SDS011;6606;49.154;9.280;2023-01-01T02:10:22;28.67;;;21.40;;
13079;SDS011;6606;49.154;9.280;2023-01-01T02:13:03;27.17;;;21.30;;
13079;SDS011;6606;49.154;9.280;2023-01-01T02:15:47;26.90;;;20.30;;
13079;SDS011;6606;49.154;9.280;2023-01-01T02:18:35;26.77;;;20.37;;
13079;SDS011;6606;49.154;9.280;2023-01-01T02:21:26;27.37;;;20.23;;
13079;SDS011;6606;49.154;9.280;2023-01-01T02:24:17;26.80;;;20.03;;
13079;SDS011;6606;49.154;9.280;2023-01-01T02:27:07;25.83;;;19.87;;
13079;SDS011;6606;49.154;9.280;2023-01-01T02:29:57;27.63;;;20.83;;
13079;SDS011;6606;49.154;9.280;2023-01-01T02:32:43;23.43;;;17.43;;
13079;SDS011;6606;49.154;9.280;2023-01-01T02:35:29;24.90;;;19.70;;
13079;SDS011;6606;49.154;9.280;2023-01-01T02:38:16;27.07;;;20.97;;
13079;SDS011;6606;49.154;9.280;2023-01-01T02:41:03;25.37;;;19.57;;
13079;SDS011;6606;49.154;9.280;2023-01-01T02:43:47;23.83;;;17.43;;
13079;SDS011;6606;49.154;9.280;2023-01-01T02:46:31;22.50;;;17.23;;
13079;SDS011;6606;49.154;9.280;2023-01-01T02:49:14;20.60;;;15.50;;
13079;SDS011;6606;49.154;9.280;2023-01-01T02:51:58;20.90;;;14.97;;
13079;SDS011;6606;49.154;9.280;2023-01-01T02:54:46;25.83;;;18.07;;
13079;SDS011;6606;49.154;9.280;2023-01-01T02:57:35;15.53;;;12.10;;
13079;SDS011;6606;49.154;9.280;2023-01-01T03:00:21;20.53;;;14.73;;
13079;SDS011;6606;49.154;9.280;2023-01-01T03:03:12;14.60;;;11.37;;
13079;SDS011;6606;49.154;9.280;2023-01-01T03:05:59;13.93;;;10.50;;
13079;SDS011;6606;49.154;9.280;2023-01-01T03:09:10;18.63;;;12.70;;
13079;SDS011;6606;49.154;9.280;2023-01-01T03:11:58;12.60;;;8.93;;
13079;SDS011;6606;49.154;9.280;2023-01-01T03:14:45;12.47;;;8.57;;
13079;SDS011;6606;49.154;9.280;2023-01-01T03:17:33;10.03;;;8.23;;
13079;SDS011;6606;49.154;9.280;2023-01-01T03:20:20;9.83;;;7.20;;
13079;SDS011;6606;49.154;9.280;2023-01-01T03:23:06;10.60;;;7.23;;
13079;SDS011;6606;49.154;9.280;2023-01-01T03:25:53;10.73;;;7.77;;
13079;SDS011;6606;49.154;9.280;2023-01-01T03:28:42;10.80;;;7.83;;
13079;SDS011;6606;49.154;9.280;2023-01-01T03:31:28;11.03;;;7.60;;
13079;SDS011;6606;49.154;9.280;2023-01-01T03:34:10;11.93;;;7.77;;
13079;SDS011;6606;49.154;9.280;2023-01-01T03:36:59;8.40;;;6.53;;
13079;SDS011;6606;49.154;9.280;2023-01-01T03:39:47;10.90;;;7.60;;
13079;SDS011;6606;49.154;9.280;2023-01-01T03:42:33;9.07;;;6.93;;
13079;SDS011;6606;49.154;9.280;2023-01-01T03:45:21;8.27;;;6.53;;
13079;SDS011;6606;49.154;9.280;2023-01-01T03:48:06;10.13;;;6.30;;
13079;SDS011;6606;49.154;9.280;2023-01-01T03:50:49;9.33;;;6.37;;
13079;SDS011;6606;49.154;9.280;2023-01-01T03:53:41;8.83;;;6.53;;
13079;SDS011;6606;49.154;9.280;2023-01-01T03:56:25;7.77;;;5.93;;
13079;SDS011;6606;49.154;9.280;2023-01-01T03:59:16;9.20;;;6.30;;
13079;SDS011;6606;49.154;9.280;2023-01-01T04:02:04;7.73;;;6.13;;
13079;SDS011;6606;49.154;9.280;2023-01-01T04:04:48;7.97;;;5.30;;
13079;SDS011;6606;49.154;9.280;2023-01-01T04:07:30;8.60;;;5.37;;
13079;SDS011;6606;49.154;9.280;2023-01-01T04:10:14;8.67;;;5.40;;
13079;SDS011;6606;49.154;9.280;2023-01-01T04:12:59;7.53;;;5.07;;
13079;SDS011;6606;49.154;9.280;2023-01-01T04:15:44;8.37;;;5.03;;
13079;SDS011;6606;49.154;9.280;2023-01-01T04:18:26;7.80;;;4.93;;
13079;SDS011;6606;49.154;9.280;2023-01-01T04:21:08;6.40;;;4.80;;
13079;SDS011;6606;49.154;9.280;2023-01-01T04:23:49;7.90;;;4.60;;
13079;SDS011;6606;49.154;9.280;2023-01-01T04:26:33;5.67;;;4.13;;
13079;SDS011;6606;49.154;9.280;2023-01-01T04:29:14;7.20;;;4.87;;
13079;SDS011;6606;49.154;9.280;2023-01-01T04:31:57;5.83;;;4.30;;
13079;SDS011;6606;49.154;9.280;2023-01-01T04:34:38;6.73;;;4.30;;
13079;SDS011;6606;49.154;9.280;2023-01-01T04:37:20;6.00;;;4.57;;
13079;SDS011;6606;49.154;9.280;2023-01-01T04:40:02;7.30;;;3.90;;
13079;SDS011;6606;49.154;9.280;2023-01-01T04:42:46;7.63;;;4.07;;
13079;SDS011;6606;49.154;9.280;2023-01-01T04:45:27;5.37;;;3.93;;
13079;SDS011;6606;49.154;9.280;2023-01-01T04:48:09;4.37;;;3.40;;
13079;SDS011;6606;49.154;9.280;2023-01-01T04:50:54;4.30;;;3.20;;
13079;SDS011;6606;49.154;9.280;2023-01-01T04:53:38;4.93;;;3.67;;
13079;SDS011;6606;49.154;9.280;2023-01-01T04:56:20;4.77;;;3.40;;
13079;SDS011;6606;49.154;9.280;2023-01-01T04:59:04;5.43;;;3.43;;
13079;SDS011;6606;49.154;9.280;2023-01-01T05:01:45;4.53;;;3.20;;
13079;SDS011;6606;49.154;9.280;2023-01-01T05:04:27;4.70;;;3.40;;
13079;SDS011;6606;49.154;9.280;2023-01-01T05:07:09;6.17;;;3.23;;
13079;SDS011;6606;49.154;9.280;2023-01-01T05:09:51;4.77;;;3.37;;
13079;SDS011;6606;49.154;9.280;2023-01-01T05:12:33;5.00;;;3.20;;
13079;SDS011;6606;49.154;9.280;2023-01-01T05:15:16;4.00;;;3.03;;
13079;SDS011;6606;49.154;9.280;2023-01-01T05:17:57;5.07;;;3.00;;
13079;SDS011;6606;49.154;9.280;2023-01-01T05:20:39;3.17;;;2.73;;
13079;SDS011;6606;49.154;9.280;2023-01-01T05:23:21;3.90;;;2.87;;
13079;SDS011;6606;49.154;9.280;2023-01-01T05:26:06;3.53;;;2.67;;
13079;SDS011;6606;49.154;9.280;2023-01-01T05:28:49;4.87;;;2.70;;
13079;SDS011;6606;49.154;9.280;2023-01-01T05:31:33;4.13;;;2.60;;
13079;SDS011;6606;49.154;9.280;2023-01-01T05:34:15;4.83;;;3.00;;
13079;SDS011;6606;49.154;9.280;2023-01-01T05:36:57;6.33;;;2.77;;
13079;SDS011;6606;49.154;9.280;2023-01-01T05:39:39;5.00;;;2.80;;
13079;SDS011;6606;49.154;9.280;2023-01-01T05:42:20;6.97;;;2.83;;
13079;SDS011;6606;49.154;9.280;2023-01-01T05:45:02;6.20;;;2.33;;
13079;SDS011;6606;49.154;9.280;2023-01-01T05:47:46;5.53;;;2.60;;
13079;SDS011;6606;49.154;9.280;2023-01-01T05:50:28;5.37;;;2.33;;
13079;SDS011;6606;49.154;9.280;2023-01-01T05:53:10;4.63;;;2.00;;
13079;SDS011;6606;49.154;9.280;2023-01-01T05:55:51;5.77;;;2.73;;
13079;SDS011;6606;49.154;9.280;2023-01-01T05:58:34;2.43;;;2.23;;
13079;SDS011;6606;49.154;9.280;2023-01-01T06:01:16;4.03;;;2.27;;
13079;SDS011;6606;49.154;9.280;2023-01-01T06:04:02;4.90;;;2.20;;
13079;SDS011;6606;49.154;9.280;2023-01-01T06:06:44;3.33;;;2.30;;
13079;SDS011;6606;49.154;9.280;2023-01-01T06:09:25;3.93;;;2.30;;
13079;SDS011;6606;49.154;9.280;2023-01-01T06:12:07;4.33;;;2.07;;
13079;SDS011;6606;49.154;9.280;2023-01-01T06:14:49;3.07;;;1.93;;
13079;SDS011;6606;49.154;9.280;2023-01-01T06:17:32;2.57;;;1.90;;
13079;SDS011;6606;49.154;9.280;2023-01-01T06:20:15;3.00;;;1.60;;
13079;SDS011;6606;49.154;9.280;2023-01-01T06:22:56;3.70;;;1.80;;
13079;SDS011;6606;49.154;9.280;2023-01-01T06:25:38;3.43;;;1.83;;
13079;SDS011;6606;49.154;9.280;2023-01-01T06:28:20;4.13;;;2.13;;
13079;SDS011;6606;49.154;9.280;2023-01-01T06:31:02;4.23;;;2.00;;
13079;SDS011;6606;49.154;9.280;2023-01-01T06:33:44;2.60;;;1.80;;
13079;SDS011;6606;49.154;9.280;2023-01-01T06:36:28;3.60;;;1.80;;
13079;SDS011;6606;49.154;9.280;2023-01-01T06:39:09;4.27;;;1.93;;
13079;SDS011;6606;49.154;9.280;2023-01-01T06:41:51;1.77;;;1.43;;
13079;SDS011;6606;49.154;9.280;2023-01-01T06:44:33;2.90;;;2.00;;
13079;SDS011;6606;49.154;9.280;2023-01-01T06:47:14;2.63;;;1.60;;
13079;SDS011;6606;49.154;9.280;2023-01-01T06:49:56;3.83;;;2.00;;
13079;SDS011;6606;49.154;9.280;2023-01-01T06:52:39;3.37;;;1.90;;
13079;SDS011;6606;49.154;9.280;2023-01-01T06:55:21;3.30;;;1.80;;
13079;SDS011;6606;49.154;9.280;2023-01-01T06:58:02;4.27;;;1.80;;
13079;SDS011;6606;49.154;9.280;2023-01-01T07:00:48;3.50;;;1.57;;
13079;SDS011;6606;49.154;9.280;2023-01-01T07:03:30;3.33;;;1.70;;
13079;SDS011;6606;49.154;9.280;2023-01-01T07:06:11;4.23;;;1.90;;
13079;SDS011;6606;49.154;9.280;2023-01-01T07:08:55;3.80;;;1.87;;
13079;SDS011;6606;49.154;9.280;2023-01-01T07:11:37;3.80;;;1.90;;
13079;SDS011;6606;49.154;9.280;2023-01-01T07:14:18;3.30;;;1.80;;
13079;SDS011;6606;49.154;9.280;2023-01-01T07:17:00;2.90;;;1.90;;
13079;SDS011;6606;49.154;9.280;2023-01-01T07:19:42;3.50;;;1.93;;
13079;SDS011;6606;49.154;9.280;2023-01-01T07:22:23;3.90;;;1.90;;
13079;SDS011;6606;49.154;9.280;2023-01-01T07:25:08;4.27;;;1.83;;
13079;SDS011;6606;49.154;9.280;2023-01-01T07:27:54;3.07;;;2.00;;
13079;SDS011;6606;49.154;9.280;2023-01-01T07:30:36;2.90;;;1.90;;
13079;SDS011;6606;49.154;9.280;2023-01-01T07:33:18;3.27;;;2.20;;
13079;SDS011;6606;49.154;9.280;2023-01-01T07:36:01;4.17;;;2.53;;
13079;SDS011;6606;49.154;9.280;2023-01-01T07:38:43;5.13;;;2.30;;
13079;SDS011;6606;49.154;9.280;2023-01-01T07:41:26;5.43;;;2.47;;
13079;SDS011;6606;49.154;9.280;2023-01-01T07:44:07;4.33;;;2.50;;
13079;SDS011;6606;49.154;9.280;2023-01-01T07:46:49;3.83;;;2.43;;
13079;SDS011;6606;49.154;9.280;2023-01-01T07:49:31;4.77;;;2.63;;
13079;SDS011;6606;49.154;9.280;2023-01-01T07:52:12;5.23;;;2.80;;
13079;SDS011;6606;49.154;9.280;2023-01-01T07:54:54;3.70;;;2.63;;
13079;SDS011;6606;49.154;9.280;2023-01-01T07:57:37;4.67;;;2.70;;
13079;SDS011;6606;49.154;9.280;2023-01-01T08:00:20;5.07;;;2.50;;
13079;SDS011;6606;49.154;9.280;2023-01-01T08:03:02;5.60;;;2.57;;
13079;SDS011;6606;49.154;9.280;2023-01-01T08:05:44;7.80;;;3.07;;
13079;SDS011;6606;49.154;9.280;2023-01-01T08:08:27;4.17;;;2.40;;
13079;SDS011;6606;49.154;9.280;2023-01-01T08:11:09;4.07;;;2.73;;
13079;SDS011;6606;49.154;9.280;2023-01-01T08:13:52;5.00;;;2.57;;
13079;SDS011;6606;49.154;9.280;2023-01-01T08:16:34;4.53;;;2.50;;
13079;SDS011;6606;49.154;9.280;2023-01-01T08:19:15;5.07;;;2.53;;
13079;SDS011;6606;49.154;9.280;2023-01-01T08:21:57;6.67;;;2.77;;
13079;SDS011;6606;49.154;9.280;2023-01-01T08:24:39;4.50;;;2.60;;
13079;SDS011;6606;49.154;9.280;2023-01-01T08:30:45;5.53;;;2.43;;
13079;SDS011;6606;49.154;9.280;2023-01-01T08:33:27;4.27;;;2.70;;
13079;SDS011;6606;49.154;9.280;2023-01-01T08:36:09;4.30;;;2.57;;
13079;SDS011;6606;49.154;9.280;2023-01-01T08:38:53;4.03;;;2.87;;
13079;SDS011;6606;49.154;9.280;2023-01-01T08:41:35;3.00;;;2.37;;
13079;SDS011;6606;49.154;9.280;2023-01-01T08:44:17;3.57;;;2.20;;
13079;SDS011;6606;49.154;9.280;2023-01-01T08:47:00;4.13;;;2.20;;
13079;SDS011;6606;49.154;9.280;2023-01-01T08:49:42;4.83;;;2.63;;
13079;SDS011;6606;49.154;9.280;2023-01-01T08:52:24;3.47;;;2.03;;
13079;SDS011;6606;49.154;9.280;2023-01-01T08:55:06;4.40;;;2.27;;
13079;SDS011;6606;49.154;9.280;2023-01-01T08:57:48;3.53;;;2.13;;
13079;SDS011;6606;49.154;9.280;2023-01-01T09:00:29;4.00;;;2.03;;
13079;SDS011;6606;49.154;9.280;2023-01-01T09:03:12;4.15;;;2.15;;
13079;SDS011;6606;49.154;9.280;2023-01-01T09:05:54;4.22;;;2.40;;
13079;SDS011;6606;49.154;9.280;2023-01-01T09:08:36;5.47;;;2.72;;
13079;SDS011;6606;49.154;9.280;2023-01-01T09:11:20;4.65;;;2.40;;
13079;SDS011;6606;49.154;9.280;2023-01-01T09:14:03;4.70;;;2.53;;
13079;SDS011;6606;49.154;9.280;2023-01-01T09:16:44;2.92;;;2.30;;
13079;SDS011;6606;49.154;9.280;2023-01-01T09:19:28;5.15;;;2.30;;
13079;SDS011;6606;49.154;9.280;2023-01-01T09:22:10;5.20;;;2.28;;
13079;SDS011;6606;49.154;9.280;2023-01-01T09:24:52;6.45;;;3.20;;
13079;SDS011;6606;49.154;9.280;2023-01-01T09:27:34;3.90;;;2.30;;
13079;SDS011;6606;49.154;9.280;2023-01-01T09:30:16;3.25;;;2.25;;
13079;SDS011;6606;49.154;9.280;2023-01-01T09:32:57;5.20;;;2.63;;
13079;SDS011;6606;49.154;9.280;2023-01-01T09:35:41;3.85;;;2.25;;
13079;SDS011;6606;49.154;9.280;2023-01-01T09:38:23;4.47;;;2.60;;
13079;SDS011;6606;49.154;9.280;2023-01-01T09:41:07;5.65;;;2.55;;
13079;SDS011;6606;49.154;9.280;2023-01-01T09:43:58;3.15;;;2.30;;
13079;SDS011;6606;49.154;9.280;2023-01-01T09:46:48;4.25;;;2.50;;
13079;SDS011;6606;49.154;9.280;2023-01-01T09:49:33;3.42;;;2.28;;
13079;SDS011;6606;49.154;9.280;2023-01-01T09:52:19;3.80;;;2.40;;
13079;SDS011;6606;49.154;9.280;2023-01-01T09:55:02;3.03;;;2.00;;
13079;SDS011;6606;49.154;9.280;2023-01-01T09:57:51;2.85;;;2.40;;
13079;SDS011;6606;49.154;9.280;2023-01-01T10:00:35;4.68;;;2.70;;
13079;SDS011;6606;49.154;9.280;2023-01-01T10:03:34;4.80;;;3.00;;
13079;SDS011;6606;49.154;9.280;2023-01-01T10:06:21;5.10;;;2.60;;
13079;SDS011;6606;49.154;9.280;2023-01-01T10:09:08;3.58;;;2.63;;
13079;SDS011;6606;49.154;9.280;2023-01-01T10:12:02;7.35;;;3.00;;
13079;SDS011;6606;49.154;9.280;2023-01-01T10:14:53;4.43;;;2.83;;
13079;SDS011;6606;49.154;9.280;2023-01-01T10:17:43;5.78;;;3.00;;
13079;SDS011;6606;49.154;9.280;2023-01-01T10:20:27;4.22;;;2.63;;
13079;SDS011;6606;49.154;9.280;2023-01-01T10:23:14;5.07;;;2.60;;
13079;SDS011;6606;49.154;9.280;2023-01-01T10:26:05;8.30;;;3.00;;
13079;SDS011;6606;49.154;9.280;2023-01-01T10:28:53;4.95;;;2.80;;
13079;SDS011;6606;49.154;9.280;2023-01-01T10:31:42;5.50;;;3.00;;
13079;SDS011;6606;49.154;9.280;2023-01-01T10:34:26;6.10;;;2.95;;
13079;SDS011;6606;49.154;9.280;2023-01-01T10:37:11;3.65;;;2.70;;
13079;SDS011;6606;49.154;9.280;2023-01-01T10:39:54;5.68;;;2.90;;
13079;SDS011;6606;49.154;9.280;2023-01-01T10:42:38;5.38;;;3.05;;
13079;SDS011;6606;49.154;9.280;2023-01-01T10:45:22;4.03;;;2.67;;
13079;SDS011;6606;49.154;9.280;2023-01-01T10:48:13;5.47;;;2.72;;
13079;SDS011;6606;49.154;9.280;2023-01-01T10:50:57;3.58;;;2.72;;
13079;SDS011;6606;49.154;9.280;2023-01-01T10:53:41;4.93;;;3.10;;
13079;SDS011;6606;49.154;9.280;2023-01-01T10:56:37;8.25;;;3.42;;
13079;SDS011;6606;49.154;9.280;2023-01-01T10:59:32;6.20;;;3.10;;
13079;SDS011;6606;49.154;9.280;2023-01-01T11:02:17;5.13;;;3.22;;
13079;SDS011;6606;49.154;9.280;2023-01-01T11:05:14;6.22;;;2.88;;
13079;SDS011;6606;49.154;9.280;2023-01-01T11:07:59;5.55;;;2.83;;
13079;SDS011;6606;49.154;9.280;2023-01-01T11:10:40;5.80;;;2.92;;
13079;SDS011;6606;49.154;9.280;2023-01-01T11:13:30;5.57;;;3.05;;
13079;SDS011;6606;49.154;9.280;2023-01-01T11:16:16;5.68;;;3.05;;
13079;SDS011;6606;49.154;9.280;2023-01-01T11:19:02;10.48;;;3.00;;
13079;SDS011;6606;49.154;9.280;2023-01-01T11:21:45;6.50;;;3.03;;
13079;SDS011;6606;49.154;9.280;2023-01-01T11:24:28;6.18;;;3.15;;
13079;SDS011;6606;49.154;9.280;2023-01-01T11:27:15;4.43;;;3.20;;
13079;SDS011;6606;49.154;9.280;2023-01-01T11:30:12;5.35;;;3.10;;
13079;SDS011;6606;49.154;9.280;2023-01-01T11:33:02;5.53;;;2.92;;
13079;SDS011;6606;49.154;9.280;2023-01-01T11:35:47;4.32;;;2.60;;
13079;SDS011;6606;49.154;9.280;2023-01-01T11:38:31;3.63;;;2.65;;
13079;SDS011;6606;49.154;9.280;2023-01-01T11:41:13;5.65;;;2.90;;
13079;SDS011;6606;49.154;9.280;2023-01-01T11:43:54;7.55;;;3.33;;
13079;SDS011;6606;49.154;9.280;2023-01-01T11:46:36;7.90;;;3.00;;
13079;SDS011;6606;49.154;9.280;2023-01-01T11:49:21;5.80;;;2.70;;
13079;SDS011;6606;49.154;9.280;2023-01-01T11:52:25;3.92;;;2.90;;
13079;SDS011;6606;49.154;9.280;2023-01-01T11:55:13;6.93;;;2.65;;
13079;SDS011;6606;49.154;9.280;2023-01-01T11:58:02;7.68;;;2.75;;
13079;SDS011;6606;49.154;9.280;2023-01-01T12:00:53;5.95;;;2.83;;
13079;SDS011;6606;49.154;9.280;2023-01-01T12:03:37;5.85;;;3.03;;
13079;SDS011;6606;49.154;9.280;2023-01-01T12:06:24;4.35;;;2.67;;
13079;SDS011;6606;49.154;9.280;2023-01-01T12:09:12;9.02;;;2.85;;
13079;SDS011;6606;49.154;9.280;2023-01-01T12:11:59;5.85;;;2.88;;
13079;SDS011;6606;49.154;9.280;2023-01-01T12:14:48;5.10;;;2.40;;
13079;SDS011;6606;49.154;9.280;2023-01-01T12:17:35;6.57;;;3.10;;
13079;SDS011;6606;49.154;9.280;2023-01-01T12:20:21;4.93;;;2.97;;
13079;SDS011;6606;49.154;9.280;2023-01-01T12:23:07;6.82;;;3.00;;
13079;SDS011;6606;49.154;9.280;2023-01-01T12:25:54;4.15;;;2.50;;
13079;SDS011;6606;49.154;9.280;2023-01-01T12:28:56;4.82;;;2.30;;
13079;SDS011;6606;49.154;9.280;2023-01-01T12:31:59;8.48;;;2.97;;
13079;SDS011;6606;49.154;9.280;2023-01-01T12:34:49;5.38;;;2.45;;
13079;SDS011;6606;49.154;9.280;2023-01-01T12:37:38;5.15;;;2.45;;
13079;SDS011;6606;49.154;9.280;2023-01-01T12:40:31;5.43;;;2.78;;
13079;SDS011;6606;49.154;9.280;2023-01-01T12:43:18;4.70;;;2.70;;
13079;SDS011;6606;49.154;9.280;2023-01-01T12:46:14;6.32;;;2.78;;
13079;SDS011;6606;49.154;9.280;2023-01-01T12:52:18;5.78;;;2.60;;
13079;SDS011;6606;49.154;9.280;2023-01-01T12:55:22;7.47;;;2.83;;
13079;SDS011;6606;49.154;9.280;2023-01-01T12:58:16;6.95;;;2.65;;
13079;SDS011;6606;49.154;9.280;2023-01-01T13:01:04;5.47;;;2.78;;
13079;SDS011;6606;49.154;9.280;2023-01-01T13:03:51;9.35;;;2.70;;
13079;SDS011;6606;49.154;9.280;2023-01-01T13:06:36;3.80;;;2.70;;
13079;SDS011;6606;49.154;9.280;2023-01-01T13:09:21;5.20;;;3.05;;
13079;SDS011;6606;49.154;9.280;2023-01-01T13:12:08;7.13;;;2.90;;
13079;SDS011;6606;49.154;9.280;2023-01-01T13:14:53;6.28;;;2.90;;
13079;SDS011;6606;49.154;9.280;2023-01-01T13:17:35;4.63;;;2.75;;
13079;SDS011;6606;49.154;9.280;2023-01-01T13:20:20;6.45;;;2.55;;
13079;SDS011;6606;49.154;9.280;2023-01-01T13:23:07;5.28;;;2.58;;
13079;SDS011;6606;49.154;9.280;2023-01-01T13:29:34;4.15;;;2.42;;
13079;SDS011;6606;49.154;9.280;2023-01-01T13:32:22;5.38;;;2.75;;
13079;SDS011;6606;49.154;9.280;2023-01-01T13:35:14;6.85;;;2.92;;
13079;SDS011;6606;49.154;9.280;2023-01-01T13:37:57;4.82;;;2.15;;
13079;SDS011;6606;49.154;9.280;2023-01-01T13:43:38;5.40;;;2.90;;
13079;SDS011;6606;49.154;9.280;2023-01-01T13:46:23;5.32;;;2.60;;
13079;SDS011;6606;49.154;9.280;2023-01-01T13:49:19;6.47;;;2.70;;
13079;SDS011;6606;49.154;9.280;2023-01-01T13:52:21;6.53;;;2.70;;
13079;SDS011;6606;49.154;9.280;2023-01-01T13:55:37;4.85;;;2.55;;
13079;SDS011;6606;49.154;9.280;2023-01-01T14:01:58;4.63;;;2.60;;
13079;SDS011;6606;49.154;9.280;2023-01-01T14:04:52;9.00;;;2.83;;
13079;SDS011;6606;49.154;9.280;2023-01-01T14:07:39;5.43;;;2.40;;
13079;SDS011;6606;49.154;9.280;2023-01-01T14:10:25;5.40;;;2.50;;
13079;SDS011;6606;49.154;9.280;2023-01-01T14:13:13;6.00;;;2.78;;
13079;SDS011;6606;49.154;9.280;2023-01-01T14:15:59;5.25;;;2.58;;
13079;SDS011;6606;49.154;9.280;2023-01-01T14:18:44;6.53;;;2.80;;
13079;SDS011;6606;49.154;9.280;2023-01-01T14:21:29;4.95;;;2.58;;
13079;SDS011;6606;49.154;9.280;2023-01-01T14:24:14;4.30;;;2.33;;
13079;SDS011;6606;49.154;9.280;2023-01-01T14:26:59;4.45;;;2.53;;
13079;SDS011;6606;49.154;9.280;2023-01-01T14:29:41;4.93;;;2.42;;
13079;SDS011;6606;49.154;9.280;2023-01-01T14:32:28;5.68;;;2.40;;
13079;SDS011;6606;49.154;9.280;2023-01-01T14:35:14;5.65;;;2.88;;
13079;SDS011;6606;49.154;9.280;2023-01-01T14:37:57;6.20;;;2.65;;
13079;SDS011;6606;49.154;9.280;2023-01-01T14:41:07;6.35;;;2.60;;
13079;SDS011;6606;49.154;9.280;2023-01-01T14:43:55;6.50;;;3.15;;
13079;SDS011;6606;49.154;9.280;2023-01-01T14:46:39;5.57;;;2.95;;
13079;SDS011;6606;49.154;9.280;2023-01-01T14:49:22;6.43;;;3.78;;
13079;SDS011;6606;49.154;9.280;2023-01-01T14:52:21;4.50;;;3.10;;
13079;SDS011;6606;49.154;9.280;2023-01-01T14:55:05;7.53;;;2.97;;
13079;SDS011;6606;49.154;9.280;2023-01-01T14:57:50;6.55;;;2.75;;
13079;SDS011;6606;49.154;9.280;2023-01-01T15:00:37;8.50;;;2.90;;
13079;SDS011;6606;49.154;9.280;2023-01-01T15:03:20;8.20;;;3.50;;
13079;SDS011;6606;49.154;9.280;2023-01-01T15:06:03;5.10;;;2.90;;
13079;SDS011;6606;49.154;9.280;2023-01-01T15:08:48;6.50;;;2.88;;
13079;SDS011;6606;49.154;9.280;2023-01-01T15:11:31;7.45;;;3.50;;
13079;SDS011;6606;49.154;9.280;2023-01-01T15:14:27;4.72;;;2.83;;
13079;SDS011;6606;49.154;9.280;2023-01-01T15:17:11;5.13;;;2.80;;
13079;SDS011;6606;49.154;9.280;2023-01-01T15:20:01;6.82;;;2.78;;
13079;SDS011;6606;49.154;9.280;2023-01-01T15:22:44;6.78;;;2.80;;
13079;SDS011;6606;49.154;9.280;2023-01-01T15:25:28;9.57;;;3.42;;
13079;SDS011;6606;49.154;9.280;2023-01-01T15:28:16;5.20;;;3.08;;
13079;SDS011;6606;49.154;9.280;2023-01-01T15:30:59;6.70;;;3.20;;
13079;SDS011;6606;49.154;9.280;2023-01-01T15:33:44;5.20;;;3.53;;
13079;SDS011;6606;49.154;9.280;2023-01-01T15:36:27;7.00;;;4.63;;
13079;SDS011;6606;49.154;9.280;2023-01-01T15:39:09;8.70;;;4.40;;
13079;SDS011;6606;49.154;9.280;2023-01-01T15:41:53;6.77;;;4.13;;
13079;SDS011;6606;49.154;9.280;2023-01-01T15:44:35;7.20;;;4.20;;
13079;SDS011;6606;49.154;9.280;2023-01-01T15:47:17;6.30;;;4.00;;
13079;SDS011;6606;49.154;9.280;2023-01-01T15:50:06;11.43;;;7.27;;
13079;SDS011;6606;49.154;9.280;2023-01-01T15:52:49;11.50;;;6.93;;
13079;SDS011;6606;49.154;9.280;2023-01-01T15:55:35;11.47;;;8.07;;
13079;SDS011;6606;49.154;9.280;2023-01-01T15:58:25;14.90;;;8.97;;
13079;SDS011;6606;49.154;9.280;2023-01-01T16:01:13;9.83;;;7.23;;
13079;SDS011;6606;49.154;9.280;2023-01-01T16:04:01;13.03;;;7.97;;
13079;SDS011;6606;49.154;9.280;2023-01-01T16:06:48;15.80;;;8.50;;
13079;SDS011;6606;49.154;9.280;2023-01-01T16:09:35;15.33;;;8.60;;
13079;SDS011;6606;49.154;9.280;2023-01-01T16:12:17;11.83;;;8.80;;
13079;SDS011;6606;49.154;9.280;2023-01-01T16:15:00;15.23;;;10.30;;
13079;SDS011;6606;49.154;9.280;2023-01-01T16:17:42;13.63;;;9.40;;
13079;SDS011;6606;49.154;9.280;2023-01-01T16:20:24;15.23;;;8.83;;
13079;SDS011;6606;49.154;9.280;2023-01-01T16:23:07;13.47;;;8.97;;
13079;SDS011;6606;49.154;9.280;2023-01-01T16:25:49;14.50;;;9.40;;
13079;SDS011;6606;49.154;9.280;2023-01-01T16:28:31;17.77;;;9.63;;
13079;SDS011;6606;49.154;9.280;2023-01-01T16:31:18;14.80;;;8.60;;
13079;SDS011;6606;49.154;9.280;2023-01-01T16:34:02;14.13;;;8.20;;
13079;SDS011;6606;49.154;9.280;2023-01-01T16:36:44;16.27;;;10.67;;
13079;SDS011;6606;49.154;9.280;2023-01-01T16:39:26;23.87;;;15.83;;
13079;SDS011;6606;49.154;9.280;2023-01-01T16:42:09;24.57;;;15.90;;
13079;SDS011;6606;49.154;9.280;2023-01-01T16:44:51;18.37;;;12.80;;
13079;SDS011;6606;49.154;9.280;2023-01-01T16:47:35;10.77;;;7.07;;
13079;SDS011;6606;49.154;9.280;2023-01-01T16:50:16;16.83;;;10.13;;
13079;SDS011;6606;49.154;9.280;2023-01-01T16:52:58;20.73;;;15.27;;
13079;SDS011;6606;49.154;9.280;2023-01-01T16:55:40;21.97;;;14.67;;
13079;SDS011;6606;49.154;9.280;2023-01-01T16:58:21;19.40;;;11.80;;